sensor_id;sensor_type;location;lat;lon;timestamp;P1;durP1;ratioP1;P2;durP2;ratioP2
37753;SDS011;23596;52.520;13.464;2023-04-03T00:01:27;16.20;;;2.17;;
37753;SDS011;23596;52.520;13.464;2023-04-03T00:03:53;13.65;;;1.92;;
37753;SDS011;23596;52.520;13.464;2023-04-03T00:06:19;9.38;;;1.67;;
37753;SDS011;23596;52.520;13.464;2023-04-03T00:08:45;10.83;;;1.63;;
37753;SDS011;23596;52.520;13.464;2023-04-03T00:11:11;18.13;;;2.43;;
37753;SDS011;23596;52.520;13.464;2023-04-03T00:13:37;13.57;;;2.22;;
37753;SDS011;23596;52.520;13.464;2023-04-03T00:18:29;14.98;;;2.50;;
37753;SDS011;23596;52.520;13.464;2023-04-03T00:20:55;14.05;;;1.80;;
37753;SDS011;23596;52.520;13.464;2023-04-03T00:23:21;16.98;;;2.08;;
37753;SDS011;23596;52.520;13.464;2023-04-03T00:28:14;12.75;;;1.88;;
37753;SDS011;23596;52.520;13.464;2023-04-03T00:30:40;14.27;;;1.80;;
37753;SDS011;23596;52.520;13.464;2023-04-03T00:33:06;14.47;;;2.53;;
37753;SDS011;23596;52.520;13.464;2023-04-03T00:35:31;19.23;;;2.57;;
37753;SDS011;23596;52.520;13.464;2023-04-03T00:37:59;7.90;;;1.58;;
37753;SDS011;23596;52.520;13.464;2023-04-03T00:40:25;15.10;;;2.27;;
37753;SDS011;23596;52.520;13.464;2023-04-03T00:42:56;10.90;;;1.88;;
37753;SDS011;23596;52.520;13.464;2023-04-03T00:45:28;20.00;;;2.15;;
37753;SDS011;23596;52.520;13.464;2023-04-03T00:47:57;10.40;;;2.13;;
37753;SDS011;23596;52.520;13.464;2023-04-03T00:50:26;16.63;;;1.92;;
37753;SDS011;23596;52.520;13.464;2023-04-03T00:52:53;12.98;;;1.85;;
37753;SDS011;23596;52.520;13.464;2023-04-03T00:55:20;10.18;;;2.30;;
37753;SDS011;23596;52.520;13.464;2023-04-03T00:57:46;8.38;;;1.63;;
37753;SDS011;23596;52.520;13.464;2023-04-03T01:00:14;10.15;;;1.63;;
37753;SDS011;23596;52.520;13.464;2023-04-03T01:02:43;20.13;;;4.70;;
37753;SDS011;23596;52.520;13.464;2023-04-03T01:05:09;13.85;;;2.10;;
37753;SDS011;23596;52.520;13.464;2023-04-03T01:10:06;20.05;;;2.05;;
37753;SDS011;23596;52.520;13.464;2023-04-03T01:12:35;11.30;;;2.13;;
37753;SDS011;23596;52.520;13.464;2023-04-03T01:15:10;9.02;;;2.25;;
37753;SDS011;23596;52.520;13.464;2023-04-03T01:25:45;21.40;;;2.28;;
37753;SDS011;23596;52.520;13.464;2023-04-03T01:28:19;12.50;;;2.13;;
37753;SDS011;23596;52.520;13.464;2023-04-03T01:30:47;21.38;;;2.47;;
37753;SDS011;23596;52.520;13.464;2023-04-03T01:33:33;19.08;;;2.08;;
37753;SDS011;23596;52.520;13.464;2023-04-03T01:35:58;15.43;;;2.43;;
37753;SDS011;23596;52.520;13.464;2023-04-03T01:38:24;16.17;;;2.17;;
37753;SDS011;23596;52.520;13.464;2023-04-03T01:40:50;13.47;;;2.63;;
37753;SDS011;23596;52.520;13.464;2023-04-03T01:43:16;8.77;;;2.63;;
37753;SDS011;23596;52.520;13.464;2023-04-03T01:45:41;15.47;;;1.93;;
37753;SDS011;23596;52.520;13.464;2023-04-03T01:48:07;9.47;;;1.67;;
37753;SDS011;23596;52.520;13.464;2023-04-03T01:50:33;17.43;;;2.47;;
37753;SDS011;23596;52.520;13.464;2023-04-03T01:52:59;19.93;;;2.43;;
37753;SDS011;23596;52.520;13.464;2023-04-03T01:55:24;14.97;;;1.97;;
37753;SDS011;23596;52.520;13.464;2023-04-03T01:57:50;12.80;;;2.43;;
37753;SDS011;23596;52.520;13.464;2023-04-03T02:00:15;10.90;;;2.20;;
37753;SDS011;23596;52.520;13.464;2023-04-03T02:02:41;15.90;;;2.53;;
37753;SDS011;23596;52.520;13.464;2023-04-03T02:05:07;12.37;;;2.23;;
37753;SDS011;23596;52.520;13.464;2023-04-03T02:07:33;12.88;;;1.92;;
37753;SDS011;23596;52.520;13.464;2023-04-03T02:09:59;17.37;;;2.50;;
37753;SDS011;23596;52.520;13.464;2023-04-03T02:12:24;19.03;;;2.57;;
37753;SDS011;23596;52.520;13.464;2023-04-03T02:14:50;14.70;;;3.30;;
37753;SDS011;23596;52.520;13.464;2023-04-03T02:17:16;12.37;;;2.70;;
37753;SDS011;23596;52.520;13.464;2023-04-03T02:19:41;13.13;;;2.40;;
37753;SDS011;23596;52.520;13.464;2023-04-03T02:22:07;14.77;;;2.60;;
37753;SDS011;23596;52.520;13.464;2023-04-03T02:24:32;16.70;;;2.37;;
37753;SDS011;23596;52.520;13.464;2023-04-03T02:26:58;17.27;;;2.30;;
37753;SDS011;23596;52.520;13.464;2023-04-03T02:29:24;22.00;;;3.03;;
37753;SDS011;23596;52.520;13.464;2023-04-03T02:31:50;15.30;;;2.73;;
37753;SDS011;23596;52.520;13.464;2023-04-03T02:34:16;13.37;;;2.80;;
37753;SDS011;23596;52.520;13.464;2023-04-03T02:36:42;10.70;;;2.35;;
37753;SDS011;23596;52.520;13.464;2023-04-03T02:39:08;11.33;;;2.43;;
37753;SDS011;23596;52.520;13.464;2023-04-03T02:41:33;14.03;;;2.83;;
37753;SDS011;23596;52.520;13.464;2023-04-03T02:44:02;13.15;;;2.67;;
37753;SDS011;23596;52.520;13.464;2023-04-03T02:46:28;15.30;;;2.92;;
37753;SDS011;23596;52.520;13.464;2023-04-03T02:48:54;11.80;;;3.63;;
37753;SDS011;23596;52.520;13.464;2023-04-03T02:51:20;19.23;;;2.77;;
37753;SDS011;23596;52.520;13.464;2023-04-03T02:53:46;18.57;;;3.70;;
37753;SDS011;23596;52.520;13.464;2023-04-03T02:56:11;18.63;;;3.13;;
37753;SDS011;23596;52.520;13.464;2023-04-03T02:58:37;17.00;;;2.73;;
37753;SDS011;23596;52.520;13.464;2023-04-03T03:01:02;20.17;;;3.70;;
37753;SDS011;23596;52.520;13.464;2023-04-03T03:03:29;15.68;;;3.60;;
37753;SDS011;23596;52.520;13.464;2023-04-03T03:06:02;21.40;;;3.13;;
37753;SDS011;23596;52.520;13.464;2023-04-03T03:08:38;11.95;;;2.47;;
37753;SDS011;23596;52.520;13.464;2023-04-03T03:11:04;17.13;;;2.60;;
37753;SDS011;23596;52.520;13.464;2023-04-03T03:13:30;15.75;;;3.05;;
37753;SDS011;23596;52.520;13.464;2023-04-03T03:15:56;11.65;;;2.47;;
37753;SDS011;23596;52.520;13.464;2023-04-03T03:18:22;11.27;;;1.87;;
37753;SDS011;23596;52.520;13.464;2023-04-03T03:20:51;17.30;;;2.53;;
37753;SDS011;23596;52.520;13.464;2023-04-03T03:23:18;11.35;;;2.38;;
37753;SDS011;23596;52.520;13.464;2023-04-03T03:25:43;11.00;;;2.53;;
37753;SDS011;23596;52.520;13.464;2023-04-03T03:28:09;17.80;;;2.70;;
37753;SDS011;23596;52.520;13.464;2023-04-03T03:30:35;19.73;;;3.07;;
37753;SDS011;23596;52.520;13.464;2023-04-03T03:33:00;10.57;;;2.00;;
37753;SDS011;23596;52.520;13.464;2023-04-03T03:35:26;14.60;;;2.00;;
37753;SDS011;23596;52.520;13.464;2023-04-03T03:37:52;13.50;;;2.37;;
37753;SDS011;23596;52.520;13.464;2023-04-03T03:40:17;11.23;;;3.43;;
37753;SDS011;23596;52.520;13.464;2023-04-03T03:42:43;17.50;;;3.10;;
37753;SDS011;23596;52.520;13.464;2023-04-03T03:45:09;14.27;;;2.47;;
37753;SDS011;23596;52.520;13.464;2023-04-03T03:47:35;17.25;;;2.35;;
37753;SDS011;23596;52.520;13.464;2023-04-03T03:50:01;12.63;;;2.60;;
37753;SDS011;23596;52.520;13.464;2023-04-03T03:52:26;7.63;;;2.17;;
37753;SDS011;23596;52.520;13.464;2023-04-03T03:54:52;21.17;;;3.07;;
37753;SDS011;23596;52.520;13.464;2023-04-03T03:57:18;17.57;;;2.90;;
37753;SDS011;23596;52.520;13.464;2023-04-03T03:59:43;14.10;;;2.77;;
37753;SDS011;23596;52.520;13.464;2023-04-03T04:02:09;16.20;;;2.73;;
37753;SDS011;23596;52.520;13.464;2023-04-03T04:04:36;14.35;;;2.60;;
37753;SDS011;23596;52.520;13.464;2023-04-03T04:07:02;16.25;;;2.67;;
37753;SDS011;23596;52.520;13.464;2023-04-03T04:09:28;9.73;;;2.42;;
37753;SDS011;23596;52.520;13.464;2023-04-03T04:11:54;16.63;;;2.43;;
37753;SDS011;23596;52.520;13.464;2023-04-03T04:14:20;17.10;;;2.45;;
37753;SDS011;23596;52.520;13.464;2023-04-03T04:16:46;12.27;;;2.67;;
37753;SDS011;23596;52.520;13.464;2023-04-03T04:19:12;16.42;;;2.83;;
37753;SDS011;23596;52.520;13.464;2023-04-03T04:21:38;17.05;;;2.28;;
37753;SDS011;23596;52.520;13.464;2023-04-03T04:24:04;20.25;;;2.28;;
37753;SDS011;23596;52.520;13.464;2023-04-03T04:26:30;12.55;;;2.97;;
37753;SDS011;23596;52.520;13.464;2023-04-03T04:28:56;18.47;;;2.90;;
37753;SDS011;23596;52.520;13.464;2023-04-03T04:31:22;21.27;;;2.97;;
37753;SDS011;23596;52.520;13.464;2023-04-03T04:33:47;15.47;;;2.33;;
37753;SDS011;23596;52.520;13.464;2023-04-03T04:36:13;14.90;;;3.13;;
37753;SDS011;23596;52.520;13.464;2023-04-03T04:38:39;22.48;;;2.97;;
37753;SDS011;23596;52.520;13.464;2023-04-03T04:41:05;16.65;;;3.15;;
37753;SDS011;23596;52.520;13.464;2023-04-03T04:43:31;26.07;;;3.37;;
37753;SDS011;23596;52.520;13.464;2023-04-03T04:46:03;11.00;;;3.03;;
37753;SDS011;23596;52.520;13.464;2023-04-03T04:48:30;13.38;;;2.53;;
37753;SDS011;23596;52.520;13.464;2023-04-03T04:50:56;19.20;;;3.20;;
37753;SDS011;23596;52.520;13.464;2023-04-03T04:53:22;19.53;;;3.53;;
37753;SDS011;23596;52.520;13.464;2023-04-03T04:55:47;22.20;;;3.07;;
37753;SDS011;23596;52.520;13.464;2023-04-03T04:58:13;14.17;;;3.13;;
37753;SDS011;23596;52.520;13.464;2023-04-03T05:00:39;15.30;;;2.97;;
37753;SDS011;23596;52.520;13.464;2023-04-03T05:03:05;29.40;;;3.80;;
37753;SDS011;23596;52.520;13.464;2023-04-03T05:05:30;21.37;;;3.90;;
37753;SDS011;23596;52.520;13.464;2023-04-03T05:07:56;27.57;;;2.80;;
37753;SDS011;23596;52.520;13.464;2023-04-03T05:10:22;23.97;;;3.03;;
37753;SDS011;23596;52.520;13.464;2023-04-03T05:12:47;20.43;;;3.80;;
37753;SDS011;23596;52.520;13.464;2023-04-03T05:15:13;18.87;;;2.70;;
37753;SDS011;23596;52.520;13.464;2023-04-03T05:17:39;13.03;;;3.47;;
37753;SDS011;23596;52.520;13.464;2023-04-03T05:20:05;19.43;;;3.10;;
37753;SDS011;23596;52.520;13.464;2023-04-03T05:25:52;22.13;;;2.47;;
37753;SDS011;23596;52.520;13.464;2023-04-03T05:28:18;22.93;;;2.53;;
37753;SDS011;23596;52.520;13.464;2023-04-03T05:30:44;16.37;;;2.90;;
37753;SDS011;23596;52.520;13.464;2023-04-03T05:33:09;25.07;;;3.00;;
37753;SDS011;23596;52.520;13.464;2023-04-03T05:35:36;11.30;;;2.58;;
37753;SDS011;23596;52.520;13.464;2023-04-03T05:38:05;11.93;;;2.50;;
37753;SDS011;23596;52.520;13.464;2023-04-03T05:40:31;9.67;;;2.17;;
37753;SDS011;23596;52.520;13.464;2023-04-03T05:42:56;18.53;;;3.03;;
37753;SDS011;23596;52.520;13.464;2023-04-03T05:45:22;13.00;;;2.23;;
37753;SDS011;23596;52.520;13.464;2023-04-03T05:47:47;20.60;;;3.20;;
37753;SDS011;23596;52.520;13.464;2023-04-03T05:50:13;20.77;;;2.73;;
37753;SDS011;23596;52.520;13.464;2023-04-03T05:52:40;23.45;;;2.65;;
37753;SDS011;23596;52.520;13.464;2023-04-03T05:55:09;11.02;;;2.38;;
37753;SDS011;23596;52.520;13.464;2023-04-03T05:57:35;19.92;;;2.90;;
37753;SDS011;23596;52.520;13.464;2023-04-03T06:00:00;16.63;;;2.63;;
37753;SDS011;23596;52.520;13.464;2023-04-03T06:02:26;16.70;;;2.50;;
37753;SDS011;23596;52.520;13.464;2023-04-03T06:04:52;14.93;;;2.40;;
37753;SDS011;23596;52.520;13.464;2023-04-03T06:07:18;16.63;;;3.17;;
37753;SDS011;23596;52.520;13.464;2023-04-03T06:09:47;22.65;;;2.30;;
37753;SDS011;23596;52.520;13.464;2023-04-03T06:12:13;20.15;;;2.38;;
37753;SDS011;23596;52.520;13.464;2023-04-03T06:14:39;15.32;;;2.83;;
37753;SDS011;23596;52.520;13.464;2023-04-03T06:17:06;20.10;;;3.17;;
37753;SDS011;23596;52.520;13.464;2023-04-03T06:19:33;11.40;;;1.65;;
37753;SDS011;23596;52.520;13.464;2023-04-03T06:21:59;14.77;;;2.40;;
37753;SDS011;23596;52.520;13.464;2023-04-03T06:24:25;8.32;;;1.77;;
37753;SDS011;23596;52.520;13.464;2023-04-03T06:26:51;26.63;;;2.75;;
37753;SDS011;23596;52.520;13.464;2023-04-03T06:29:18;16.35;;;3.03;;
37753;SDS011;23596;52.520;13.464;2023-04-03T06:31:44;12.55;;;1.60;;
37753;SDS011;23596;52.520;13.464;2023-04-03T06:34:10;7.47;;;2.08;;
37753;SDS011;23596;52.520;13.464;2023-04-03T06:36:36;9.57;;;1.88;;
37753;SDS011;23596;52.520;13.464;2023-04-03T06:39:03;11.90;;;2.40;;
37753;SDS011;23596;52.520;13.464;2023-04-03T06:41:29;21.00;;;2.30;;
37753;SDS011;23596;52.520;13.464;2023-04-03T06:43:55;11.85;;;1.90;;
37753;SDS011;23596;52.520;13.464;2023-04-03T06:46:22;13.02;;;2.00;;
37753;SDS011;23596;52.520;13.464;2023-04-03T06:48:48;12.20;;;2.00;;
37753;SDS011;23596;52.520;13.464;2023-04-03T06:51:19;11.15;;;2.75;;
37753;SDS011;23596;52.520;13.464;2023-04-03T06:53:47;13.13;;;1.70;;
37753;SDS011;23596;52.520;13.464;2023-04-03T06:56:13;7.70;;;1.75;;
37753;SDS011;23596;52.520;13.464;2023-04-03T06:58:39;17.20;;;1.83;;
37753;SDS011;23596;52.520;13.464;2023-04-03T07:01:05;13.50;;;1.88;;
37753;SDS011;23596;52.520;13.464;2023-04-03T07:03:31;16.17;;;1.87;;
37753;SDS011;23596;52.520;13.464;2023-04-03T07:05:56;11.90;;;1.90;;
37753;SDS011;23596;52.520;13.464;2023-04-03T07:08:22;12.33;;;2.50;;
37753;SDS011;23596;52.520;13.464;2023-04-03T07:10:48;25.58;;;1.92;;
37753;SDS011;23596;52.520;13.464;2023-04-03T07:15:40;10.27;;;1.70;;
37753;SDS011;23596;52.520;13.464;2023-04-03T07:18:06;11.87;;;2.10;;
37753;SDS011;23596;52.520;13.464;2023-04-03T07:20:32;9.67;;;2.00;;
37753;SDS011;23596;52.520;13.464;2023-04-03T07:22:58;12.88;;;1.35;;
37753;SDS011;23596;52.520;13.464;2023-04-03T07:25:24;12.80;;;1.80;;
37753;SDS011;23596;52.520;13.464;2023-04-03T07:27:50;13.70;;;2.10;;
37753;SDS011;23596;52.520;13.464;2023-04-03T07:30:16;8.57;;;1.50;;
37753;SDS011;23596;52.520;13.464;2023-04-03T07:32:41;9.77;;;2.13;;
37753;SDS011;23596;52.520;13.464;2023-04-03T07:35:07;9.60;;;1.63;;
37753;SDS011;23596;52.520;13.464;2023-04-03T07:37:33;8.57;;;1.30;;
37753;SDS011;23596;52.520;13.464;2023-04-03T07:39:58;12.43;;;2.03;;
37753;SDS011;23596;52.520;13.464;2023-04-03T07:42:25;10.70;;;1.60;;
37753;SDS011;23596;52.520;13.464;2023-04-03T07:44:53;8.90;;;1.35;;
37753;SDS011;23596;52.520;13.464;2023-04-03T07:47:18;10.23;;;1.40;;
37753;SDS011;23596;52.520;13.464;2023-04-03T07:49:45;16.45;;;1.60;;
37753;SDS011;23596;52.520;13.464;2023-04-03T07:52:11;9.40;;;1.97;;
37753;SDS011;23596;52.520;13.464;2023-04-03T07:54:37;6.35;;;1.30;;
37753;SDS011;23596;52.520;13.464;2023-04-03T07:57:03;6.80;;;1.20;;
37753;SDS011;23596;52.520;13.464;2023-04-03T07:59:29;9.00;;;1.60;;
37753;SDS011;23596;52.520;13.464;2023-04-03T08:01:54;13.07;;;1.83;;
37753;SDS011;23596;52.520;13.464;2023-04-03T08:04:20;16.63;;;2.20;;
37753;SDS011;23596;52.520;13.464;2023-04-03T08:06:46;11.03;;;1.87;;
37753;SDS011;23596;52.520;13.464;2023-04-03T08:09:11;8.47;;;1.40;;
37753;SDS011;23596;52.520;13.464;2023-04-03T08:11:39;8.82;;;1.77;;
37753;SDS011;23596;52.520;13.464;2023-04-03T08:14:04;10.10;;;1.42;;
37753;SDS011;23596;52.520;13.464;2023-04-03T08:16:30;8.90;;;1.57;;
37753;SDS011;23596;52.520;13.464;2023-04-03T08:18:56;13.30;;;1.47;;
37753;SDS011;23596;52.520;13.464;2023-04-03T08:21:21;5.40;;;1.40;;
37753;SDS011;23596;52.520;13.464;2023-04-03T08:23:48;8.73;;;1.53;;
37753;SDS011;23596;52.520;13.464;2023-04-03T08:26:16;11.68;;;1.48;;
37753;SDS011;23596;52.520;13.464;2023-04-03T08:28:45;11.70;;;1.40;;
37753;SDS011;23596;52.520;13.464;2023-04-03T08:31:12;4.87;;;1.17;;
37753;SDS011;23596;52.520;13.464;2023-04-03T08:33:43;13.05;;;1.42;;
37753;SDS011;23596;52.520;13.464;2023-04-03T08:36:16;10.68;;;1.70;;
37753;SDS011;23596;52.520;13.464;2023-04-03T08:38:44;10.88;;;1.17;;
37753;SDS011;23596;52.520;13.464;2023-04-03T08:46:24;8.18;;;1.77;;
37753;SDS011;23596;52.520;13.464;2023-04-03T08:48:58;6.93;;;1.80;;
37753;SDS011;23596;52.520;13.464;2023-04-03T08:51:25;6.57;;;1.38;;
37753;SDS011;23596;52.520;13.464;2023-04-03T08:54:00;13.85;;;1.55;;
37753;SDS011;23596;52.520;13.464;2023-04-03T08:56:33;13.10;;;1.80;;
37753;SDS011;23596;52.520;13.464;2023-04-03T09:01:30;9.63;;;2.28;;
37753;SDS011;23596;52.520;13.464;2023-04-03T09:04:01;7.18;;;1.38;;
37753;SDS011;23596;52.520;13.464;2023-04-03T09:06:29;10.13;;;1.70;;
37753;SDS011;23596;52.520;13.464;2023-04-03T09:09:14;12.40;;;1.80;;
37753;SDS011;23596;52.520;13.464;2023-04-03T09:11:53;12.75;;;1.58;;
37753;SDS011;23596;52.520;13.464;2023-04-03T09:17:30;6.32;;;1.38;;
37753;SDS011;23596;52.520;13.464;2023-04-03T09:20:11;6.75;;;1.20;;
37753;SDS011;23596;52.520;13.464;2023-04-03T09:22:46;14.20;;;1.77;;
37753;SDS011;23596;52.520;13.464;2023-04-03T09:27:52;11.13;;;1.50;;
37753;SDS011;23596;52.520;13.464;2023-04-03T09:30:19;4.43;;;1.08;;
37753;SDS011;23596;52.520;13.464;2023-04-03T09:32:47;9.88;;;1.52;;
37753;SDS011;23596;52.520;13.464;2023-04-03T09:35:27;8.52;;;1.00;;
37753;SDS011;23596;52.520;13.464;2023-04-03T09:38:01;8.48;;;1.33;;
37753;SDS011;23596;52.520;13.464;2023-04-03T09:40:37;7.80;;;1.40;;
37753;SDS011;23596;52.520;13.464;2023-04-03T09:45:45;9.23;;;1.30;;
37753;SDS011;23596;52.520;13.464;2023-04-03T09:50:38;5.67;;;1.47;;
37753;SDS011;23596;52.520;13.464;2023-04-03T09:58:48;4.57;;;1.25;;
37753;SDS011;23596;52.520;13.464;2023-04-03T10:01:29;6.75;;;1.42;;
37753;SDS011;23596;52.520;13.464;2023-04-03T10:04:05;6.90;;;1.45;;
37753;SDS011;23596;52.520;13.464;2023-04-03T10:06:35;11.93;;;1.95;;
37753;SDS011;23596;52.520;13.464;2023-04-03T10:09:15;6.60;;;1.20;;
37753;SDS011;23596;52.520;13.464;2023-04-03T10:11:57;4.88;;;1.25;;
37753;SDS011;23596;52.520;13.464;2023-04-03T10:14:26;8.63;;;1.15;;
37753;SDS011;23596;52.520;13.464;2023-04-03T10:28:09;7.82;;;1.40;;
37753;SDS011;23596;52.520;13.464;2023-04-03T10:30:58;3.60;;;0.95;;
37753;SDS011;23596;52.520;13.464;2023-04-03T10:36:24;5.70;;;1.10;;
37753;SDS011;23596;52.520;13.464;2023-04-03T10:44:52;7.75;;;1.83;;
37753;SDS011;23596;52.520;13.464;2023-04-03T10:50:13;14.55;;;1.40;;
37753;SDS011;23596;52.520;13.464;2023-04-03T10:55:53;2.55;;;0.65;;
37753;SDS011;23596;52.520;13.464;2023-04-03T10:58:43;3.90;;;1.30;;
37753;SDS011;23596;52.520;13.464;2023-04-03T11:01:20;4.03;;;1.30;;
37753;SDS011;23596;52.520;13.464;2023-04-03T11:03:53;6.75;;;1.33;;
37753;SDS011;23596;52.520;13.464;2023-04-03T11:06:22;7.05;;;1.25;;
37753;SDS011;23596;52.520;13.464;2023-04-03T11:08:52;8.30;;;1.10;;
37753;SDS011;23596;52.520;13.464;2023-04-03T11:11:26;2.42;;;1.00;;
37753;SDS011;23596;52.520;13.464;2023-04-03T11:13:57;9.55;;;1.52;;
37753;SDS011;23596;52.520;13.464;2023-04-03T11:16:46;5.82;;;1.33;;
37753;SDS011;23596;52.520;13.464;2023-04-03T11:21:56;6.00;;;0.98;;
37753;SDS011;23596;52.520;13.464;2023-04-03T11:24:26;5.50;;;1.15;;
37753;SDS011;23596;52.520;13.464;2023-04-03T11:26:55;11.13;;;0.90;;
37753;SDS011;23596;52.520;13.464;2023-04-03T11:29:32;4.80;;;1.27;;
37753;SDS011;23596;52.520;13.464;2023-04-03T11:34:34;4.65;;;1.13;;
37753;SDS011;23596;52.520;13.464;2023-04-03T11:37:27;4.93;;;1.10;;
37753;SDS011;23596;52.520;13.464;2023-04-03T11:40:08;7.35;;;1.60;;
37753;SDS011;23596;52.520;13.464;2023-04-03T11:42:47;5.65;;;1.63;;
37753;SDS011;23596;52.520;13.464;2023-04-03T11:47:52;11.57;;;1.55;;
37753;SDS011;23596;52.520;13.464;2023-04-03T12:08:26;11.15;;;1.98;;
37753;SDS011;23596;52.520;13.464;2023-04-03T12:21:22;6.93;;;1.00;;
37753;SDS011;23596;52.520;13.464;2023-04-03T12:24:15;4.15;;;1.23;;
37753;SDS011;23596;52.520;13.464;2023-04-03T12:37:40;6.95;;;1.13;;
37753;SDS011;23596;52.520;13.464;2023-04-03T12:40:27;9.35;;;1.67;;
37753;SDS011;23596;52.520;13.464;2023-04-03T12:48:58;5.22;;;1.42;;
37753;SDS011;23596;52.520;13.464;2023-04-03T12:53:58;7.10;;;1.25;;
37753;SDS011;23596;52.520;13.464;2023-04-03T12:56:28;4.65;;;1.10;;
37753;SDS011;23596;52.520;13.464;2023-04-03T12:58:56;10.30;;;1.23;;
37753;SDS011;23596;52.520;13.464;2023-04-03T13:01:40;7.38;;;1.20;;
37753;SDS011;23596;52.520;13.464;2023-04-03T13:04:05;2.10;;;1.00;;
37753;SDS011;23596;52.520;13.464;2023-04-03T13:06:34;3.83;;;1.48;;
37753;SDS011;23596;52.520;13.464;2023-04-03T13:09:05;5.70;;;1.05;;
37753;SDS011;23596;52.520;13.464;2023-04-03T13:11:43;5.70;;;1.15;;
37753;SDS011;23596;52.520;13.464;2023-04-03T13:14:21;4.55;;;1.08;;
37753;SDS011;23596;52.520;13.464;2023-04-03T13:16:55;3.58;;;1.23;;
37753;SDS011;23596;52.520;13.464;2023-04-03T13:19:23;2.58;;;0.98;;
37753;SDS011;23596;52.520;13.464;2023-04-03T13:21:52;7.90;;;1.63;;
37753;SDS011;23596;52.520;13.464;2023-04-03T13:24:26;6.40;;;1.10;;
37753;SDS011;23596;52.520;13.464;2023-04-03T13:26:54;4.57;;;1.10;;
37753;SDS011;23596;52.520;13.464;2023-04-03T13:29:25;4.60;;;1.30;;
37753;SDS011;23596;52.520;13.464;2023-04-03T13:31:53;6.47;;;0.90;;
37753;SDS011;23596;52.520;13.464;2023-04-03T13:34:21;5.38;;;1.17;;
37753;SDS011;23596;52.520;13.464;2023-04-03T13:36:56;10.20;;;1.27;;
37753;SDS011;23596;52.520;13.464;2023-04-03T13:39:28;9.55;;;1.23;;
37753;SDS011;23596;52.520;13.464;2023-04-03T13:41:58;6.95;;;1.58;;
37753;SDS011;23596;52.520;13.464;2023-04-03T13:44:34;6.32;;;1.13;;
37753;SDS011;23596;52.520;13.464;2023-04-03T13:49:36;3.53;;;1.17;;
37753;SDS011;23596;52.520;13.464;2023-04-03T13:54:53;5.95;;;1.10;;
37753;SDS011;23596;52.520;13.464;2023-04-03T13:57:21;5.40;;;0.98;;
37753;SDS011;23596;52.520;13.464;2023-04-03T13:59:47;5.97;;;1.35;;
37753;SDS011;23596;52.520;13.464;2023-04-03T14:07:08;6.00;;;1.40;;
37753;SDS011;23596;52.520;13.464;2023-04-03T14:09:35;7.32;;;1.35;;
37753;SDS011;23596;52.520;13.464;2023-04-03T14:12:05;10.48;;;1.35;;
37753;SDS011;23596;52.520;13.464;2023-04-03T14:14:33;9.48;;;1.45;;
37753;SDS011;23596;52.520;13.464;2023-04-03T14:17:02;6.03;;;1.48;;
37753;SDS011;23596;52.520;13.464;2023-04-03T14:19:35;10.57;;;1.50;;
37753;SDS011;23596;52.520;13.464;2023-04-03T14:22:06;5.43;;;1.47;;
37753;SDS011;23596;52.520;13.464;2023-04-03T14:24:43;5.72;;;1.40;;
37753;SDS011;23596;52.520;13.464;2023-04-03T14:27:29;5.75;;;1.17;;
37753;SDS011;23596;52.520;13.464;2023-04-03T14:29:59;4.63;;;0.98;;
37753;SDS011;23596;52.520;13.464;2023-04-03T14:32:25;6.57;;;1.50;;
37753;SDS011;23596;52.520;13.464;2023-04-03T14:37:19;7.10;;;1.17;;
37753;SDS011;23596;52.520;13.464;2023-04-03T14:39:48;4.90;;;1.85;;
37753;SDS011;23596;52.520;13.464;2023-04-03T14:42:16;6.80;;;1.45;;
37753;SDS011;23596;52.520;13.464;2023-04-03T14:44:54;7.22;;;1.50;;
37753;SDS011;23596;52.520;13.464;2023-04-03T14:47:21;5.40;;;1.53;;
37753;SDS011;23596;52.520;13.464;2023-04-03T14:49:51;4.50;;;1.60;;
37753;SDS011;23596;52.520;13.464;2023-04-03T14:52:21;3.93;;;1.00;;
37753;SDS011;23596;52.520;13.464;2023-04-03T14:54:47;3.17;;;1.10;;
37753;SDS011;23596;52.520;13.464;2023-04-03T14:57:14;6.57;;;1.30;;
37753;SDS011;23596;52.520;13.464;2023-04-03T14:59:41;2.80;;;1.17;;
37753;SDS011;23596;52.520;13.464;2023-04-03T15:04:55;9.48;;;1.27;;
37753;SDS011;23596;52.520;13.464;2023-04-03T15:07:21;17.23;;;1.58;;
37753;SDS011;23596;52.520;13.464;2023-04-03T15:09:49;9.25;;;1.17;;
37753;SDS011;23596;52.520;13.464;2023-04-03T15:12:15;3.50;;;0.95;;
37753;SDS011;23596;52.520;13.464;2023-04-03T15:14:41;5.80;;;1.33;;
37753;SDS011;23596;52.520;13.464;2023-04-03T15:17:08;8.63;;;1.17;;
37753;SDS011;23596;52.520;13.464;2023-04-03T15:19:41;6.53;;;1.55;;
37753;SDS011;23596;52.520;13.464;2023-04-03T15:22:09;7.53;;;1.50;;
37753;SDS011;23596;52.520;13.464;2023-04-03T15:24:38;7.75;;;1.33;;
37753;SDS011;23596;52.520;13.464;2023-04-03T15:27:04;9.17;;;1.40;;
37753;SDS011;23596;52.520;13.464;2023-04-03T15:29:30;5.57;;;1.60;;
37753;SDS011;23596;52.520;13.464;2023-04-03T15:31:55;6.90;;;1.43;;
37753;SDS011;23596;52.520;13.464;2023-04-03T15:34:21;6.13;;;1.33;;
37753;SDS011;23596;52.520;13.464;2023-04-03T15:36:47;6.83;;;1.10;;
37753;SDS011;23596;52.520;13.464;2023-04-03T15:39:12;12.33;;;1.83;;
37753;SDS011;23596;52.520;13.464;2023-04-03T15:41:38;6.97;;;1.03;;
37753;SDS011;23596;52.520;13.464;2023-04-03T15:44:04;7.57;;;1.47;;
37753;SDS011;23596;52.520;13.464;2023-04-03T15:46:29;7.13;;;1.80;;
37753;SDS011;23596;52.520;13.464;2023-04-03T15:48:55;10.07;;;1.50;;
37753;SDS011;23596;52.520;13.464;2023-04-03T15:51:20;7.00;;;1.53;;
37753;SDS011;23596;52.520;13.464;2023-04-03T15:53:46;6.47;;;1.03;;
37753;SDS011;23596;52.520;13.464;2023-04-03T15:56:12;6.40;;;1.20;;
37753;SDS011;23596;52.520;13.464;2023-04-03T15:58:37;4.27;;;1.17;;
37753;SDS011;23596;52.520;13.464;2023-04-03T16:01:03;10.07;;;1.77;;
37753;SDS011;23596;52.520;13.464;2023-04-03T16:03:28;10.07;;;1.30;;
37753;SDS011;23596;52.520;13.464;2023-04-03T16:05:54;14.60;;;1.60;;
37753;SDS011;23596;52.520;13.464;2023-04-03T16:08:20;5.73;;;1.40;;
37753;SDS011;23596;52.520;13.464;2023-04-03T16:10:46;6.23;;;1.80;;
37753;SDS011;23596;52.520;13.464;2023-04-03T16:13:12;3.33;;;1.00;;
37753;SDS011;23596;52.520;13.464;2023-04-03T16:15:38;5.00;;;1.30;;
37753;SDS011;23596;52.520;13.464;2023-04-03T16:18:05;4.03;;;1.70;;
37753;SDS011;23596;52.520;13.464;2023-04-03T16:20:31;4.13;;;1.20;;
37753;SDS011;23596;52.520;13.464;2023-04-03T16:22:57;4.67;;;1.37;;
37753;SDS011;23596;52.520;13.464;2023-04-03T16:25:24;7.28;;;1.98;;
37753;SDS011;23596;52.520;13.464;2023-04-03T16:27:51;9.30;;;1.27;;
37753;SDS011;23596;52.520;13.464;2023-04-03T16:30:17;6.87;;;1.20;;
37753;SDS011;23596;52.520;13.464;2023-04-03T16:32:42;10.20;;;1.77;;
37753;SDS011;23596;52.520;13.464;2023-04-03T16:35:09;8.43;;;1.93;;
37753;SDS011;23596;52.520;13.464;2023-04-03T16:37:38;8.82;;;1.50;;
37753;SDS011;23596;52.520;13.464;2023-04-03T16:40:05;8.15;;;1.38;;
37753;SDS011;23596;52.520;13.464;2023-04-03T16:42:31;4.65;;;1.17;;
37753;SDS011;23596;52.520;13.464;2023-04-03T16:44:57;7.70;;;1.97;;
37753;SDS011;23596;52.520;13.464;2023-04-03T16:47:24;6.57;;;1.83;;
37753;SDS011;23596;52.520;13.464;2023-04-03T16:49:50;4.40;;;1.30;;
37753;SDS011;23596;52.520;13.464;2023-04-03T16:52:16;9.13;;;1.30;;
37753;SDS011;23596;52.520;13.464;2023-04-03T16:54:41;6.63;;;1.57;;
37753;SDS011;23596;52.520;13.464;2023-04-03T16:57:07;7.00;;;1.53;;